Terminal Aerodrome Forecast
Issued by NWS Paducah, KY

Home | Current Version | Previous Version | Text Only | Print | Product List | Glossary On
Versions: 1 2 3 4 5 6 7 8 9 10 11 12 13 14 15 16 17 18 19 20 21 22 23 24 25 26 27 28 29
691
FTUS43 KPAH 152005 AAB
TAFPAH
TAF AMD
KPAH 152005Z 1520/1618 05006KT 3SM BR OVC004
     FM160300 06005KT 1SM BR OVC003
     FM161500 12006KT P6SM OVC012=

USA.gov is the U.S. government's official web portal to all federal, state and local government web resources and services.